createdAt,value
2019-05-03T00:01:42.004Z,8.20
2019-05-03T00:04:12.060Z,7.33
2019-05-03T00:06:40.328Z,7.08
2019-05-03T00:09:11.896Z,7.05
2019-05-03T00:11:42.113Z,7.10
2019-05-03T00:14:12.330Z,6.33
2019-05-03T00:16:42.074Z,6.65
2019-05-03T00:19:10.337Z,6.33
2019-05-03T00:21:38.714Z,6.67
2019-05-03T00:24:06.976Z,6.50
2019-05-03T00:26:35.283Z,6.62
2019-05-03T00:29:03.536Z,6.67
2019-05-03T00:31:31.967Z,6.83
2019-05-03T00:34:02.234Z,6.60
2019-05-03T00:36:32.849Z,6.62
2019-05-03T00:39:03.120Z,6.08
2019-05-03T00:41:32.040Z,6.00
2019-05-03T00:44:02.107Z,6.58
2019-05-03T00:46:30.346Z,5.92
2019-05-03T00:48:58.635Z,6.70
2019-05-03T00:51:26.882Z,5.97
2019-05-03T00:53:55.172Z,6.17
2019-05-03T00:56:23.431Z,5.80
2019-05-03T00:58:53.381Z,6.30
2019-05-03T01:01:22.545Z,6.47
2019-05-03T01:03:52.721Z,6.62
2019-05-03T01:06:22.380Z,6.83
2019-05-03T01:08:52.278Z,6.53
2019-05-03T01:11:22.251Z,7.15
2019-05-03T01:13:52.159Z,6.70
2019-05-03T01:16:22.740Z,7.15
2019-05-03T01:18:52.318Z,6.30
2019-05-03T01:21:22.558Z,6.17
2019-05-03T01:23:52.578Z,6.33
2019-05-03T01:26:22.676Z,5.50
2019-05-03T01:28:52.141Z,5.28
2019-05-03T01:31:22.657Z,5.83
2019-05-03T01:33:51.619Z,5.47
2019-05-03T01:36:22.702Z,5.78
2019-05-03T01:38:52.809Z,6.05
2019-05-03T01:41:21.686Z,6.58
2019-05-03T01:43:50.010Z,6.45
2019-05-03T01:46:18.386Z,6.05
2019-05-03T01:48:57.018Z,6.20
2019-05-03T01:51:26.956Z,6.33
2019-05-03T01:53:55.212Z,7.03
2019-05-03T01:56:23.542Z,6.62
2019-05-03T01:58:52.391Z,6.25
2019-05-03T02:01:22.618Z,6.70
2019-05-03T02:04:12.265Z,5.97
2019-05-03T02:06:42.451Z,5.72
2019-05-03T02:09:12.199Z,6.30
2019-05-03T02:11:42.143Z,5.95
2019-05-03T02:14:12.385Z,6.10
2019-05-03T02:16:41.994Z,6.45
2019-05-03T02:19:12.495Z,5.85
2019-05-03T02:21:41.650Z,5.90
2019-05-03T02:24:11.861Z,5.53
2019-05-03T02:26:42.335Z,6.00
2019-05-03T02:29:12.440Z,5.87
2019-05-03T02:31:43.333Z,6.00
2019-05-03T02:34:12.535Z,5.72
2019-05-03T02:36:42.891Z,5.65
2019-05-03T02:39:13.599Z,6.12
2019-05-03T02:41:42.060Z,5.05
2019-05-03T02:44:10.977Z,5.33
2019-05-03T02:46:40.911Z,5.40
2019-05-03T02:49:19.601Z,5.00
2019-05-03T02:51:47.902Z,5.65
2019-05-03T02:54:16.174Z,5.22
2019-05-03T02:56:46.077Z,5.00
2019-05-03T02:59:15.839Z,4.78
2019-05-03T03:01:46.499Z,4.83
2019-05-03T03:04:15.686Z,5.12
2019-05-03T03:06:45.450Z,5.20
2019-05-03T03:09:16.422Z,5.37
2019-05-03T03:11:45.772Z,4.85
2019-05-03T03:14:16.646Z,4.50
2019-05-03T03:16:45.625Z,4.80
2019-05-03T03:19:15.969Z,4.40
2019-05-03T03:21:46.796Z,4.45
2019-05-03T03:24:18.352Z,4.45
2019-05-03T03:26:47.401Z,4.62
2019-05-03T03:29:17.535Z,4.62
2019-05-03T03:31:51.840Z,4.10
2019-05-03T03:34:27.549Z,4.28
2019-05-03T03:37:00.770Z,4.00
2019-05-03T03:39:26.048Z,4.45
2019-05-03T03:41:55.787Z,4.10
2019-05-03T03:44:25.724Z,4.12
2019-05-03T03:46:56.165Z,4.83
2019-05-03T03:49:26.250Z,3.70
2019-05-03T03:51:56.324Z,4.17
2019-05-03T03:54:26.055Z,4.12
2019-05-03T03:57:03.291Z,4.15
2019-05-03T03:59:26.558Z,4.20
2019-05-03T04:01:55.305Z,3.77
2019-05-03T04:04:26.107Z,3.85
2019-05-03T04:06:58.478Z,3.92
2019-05-03T04:09:25.562Z,3.90
2019-05-03T04:11:56.760Z,4.25
2019-05-03T04:14:26.011Z,3.92
2019-05-03T04:17:05.872Z,4.15
2019-05-03T04:19:38.618Z,4.28
2019-05-03T04:22:07.055Z,4.37
2019-05-03T04:24:35.565Z,4.05
2019-05-03T04:27:18.563Z,3.70
2019-05-03T04:29:37.879Z,3.35
2019-05-03T04:32:06.983Z,3.45
2019-05-03T04:34:35.835Z,3.52
2019-05-03T04:37:05.577Z,4.17
2019-05-03T04:39:35.948Z,3.98
2019-05-03T04:42:06.738Z,4.10
2019-05-03T04:44:35.801Z,4.10
2019-05-03T04:47:06.838Z,4.42
2019-05-03T04:49:36.196Z,4.60
2019-05-03T04:52:05.783Z,3.83
2019-05-03T04:54:39.160Z,4.08
2019-05-03T04:57:07.526Z,3.27
2019-05-03T04:59:35.991Z,3.33
2019-05-03T05:02:06.109Z,3.02
2019-05-03T05:04:35.710Z,8.23
2019-05-03T05:07:06.212Z,4.17
2019-05-03T05:09:34.901Z,3.35
2019-05-03T05:12:05.668Z,3.98
2019-05-03T05:14:35.206Z,3.27
2019-05-03T05:17:06.183Z,3.02
2019-05-03T05:19:35.804Z,2.98
2019-05-03T05:22:06.016Z,3.10
2019-05-03T05:24:34.704Z,3.00
2019-05-03T05:27:07.504Z,2.95
2019-05-03T05:29:37.422Z,2.90
2019-05-03T05:32:05.652Z,2.92
2019-05-03T05:34:34.907Z,3.50
2019-05-03T05:37:05.285Z,3.40
2019-05-03T05:39:35.451Z,2.85
2019-05-03T05:42:04.548Z,3.72
2019-05-03T05:44:35.101Z,3.83
2019-05-03T05:47:07.455Z,3.40
2019-05-03T05:49:46.438Z,3.77
2019-05-03T05:52:15.461Z,3.65
2019-05-03T05:54:46.001Z,3.33
2019-05-03T05:57:25.651Z,2.60
2019-05-03T06:00:12.160Z,3.55
2019-05-03T06:02:40.378Z,3.10
2019-05-03T06:05:08.648Z,3.30
2019-05-03T06:07:38.541Z,3.10
2019-05-03T06:10:16.552Z,3.05
2019-05-03T06:12:48.967Z,2.45
2019-05-03T06:15:34.702Z,2.87
2019-05-03T06:18:19.693Z,2.85
2019-05-03T06:20:49.589Z,3.00
2019-05-03T06:23:19.473Z,2.65
2019-05-03T06:25:47.768Z,2.67
2019-05-03T06:28:20.802Z,2.90
2019-05-03T06:30:55.044Z,3.12
2019-05-03T06:33:24.522Z,2.90
2019-05-03T06:35:54.602Z,2.55
2019-05-03T06:38:24.385Z,2.72
2019-05-03T06:40:54.437Z,2.98
2019-05-03T06:43:24.511Z,3.05
2019-05-03T06:45:54.666Z,2.92
2019-05-03T06:48:28.006Z,2.85
2019-05-03T06:50:52.847Z,2.65
2019-05-03T06:53:21.071Z,3.00
2019-05-03T06:55:49.297Z,3.30
2019-05-03T06:58:30.547Z,2.27
2019-05-03T07:01:01.080Z,2.98
2019-05-03T07:03:40.144Z,2.37
2019-05-03T07:06:33.266Z,2.83
2019-05-03T07:08:54.943Z,2.35
2019-05-03T07:11:24.751Z,2.67
2019-05-03T07:13:55.025Z,2.58
2019-05-03T07:16:25.126Z,3.02
2019-05-03T07:18:56.496Z,2.60
2019-05-03T07:21:24.746Z,2.90
2019-05-03T07:23:55.019Z,2.98
2019-05-03T07:26:25.229Z,2.77
2019-05-03T07:28:54.530Z,2.65
2019-05-03T07:31:25.347Z,2.45
2019-05-03T07:33:55.060Z,2.95
2019-05-03T07:36:25.954Z,2.35
2019-05-03T07:38:55.401Z,2.80
2019-05-03T07:41:26.894Z,2.00
2019-05-03T07:43:54.891Z,2.50
2019-05-03T07:46:24.775Z,3.00
2019-05-03T07:48:54.836Z,2.67
2019-05-03T07:51:24.971Z,2.55
2019-05-03T07:53:55.377Z,3.02
2019-05-03T07:56:25.478Z,2.15
2019-05-03T07:59:00.581Z,2.72
2019-05-03T08:01:29.171Z,2.10
2019-05-03T08:03:57.745Z,2.33
2019-05-03T08:06:25.977Z,2.70
2019-05-03T08:08:54.617Z,2.87
2019-05-03T08:11:24.842Z,2.87
2019-05-03T08:13:55.001Z,2.80
2019-05-03T08:16:25.108Z,2.70
2019-05-03T08:18:55.609Z,2.60
2019-05-03T08:21:25.287Z,2.52
2019-05-03T08:23:55.477Z,2.17
2019-05-03T08:26:25.076Z,2.83
2019-05-03T08:28:54.522Z,1.90
2019-05-03T08:31:36.500Z,2.70
2019-05-03T08:34:06.384Z,2.30
2019-05-03T08:36:36.306Z,2.45
2019-05-03T08:39:05.763Z,2.12
2019-05-03T08:41:35.676Z,2.45
2019-05-03T08:44:05.194Z,2.33
2019-05-03T08:46:35.462Z,2.20
2019-05-03T08:49:05.235Z,2.80
2019-05-03T08:51:35.238Z,2.25
2019-05-03T08:54:04.743Z,2.40
2019-05-03T08:56:34.888Z,2.37
2019-05-03T08:59:04.672Z,2.30
2019-05-03T09:01:35.720Z,2.55
2019-05-03T09:04:04.955Z,2.87
2019-05-03T09:06:35.358Z,2.35
2019-05-03T09:09:04.902Z,2.30
2019-05-03T09:11:34.806Z,2.60
2019-05-03T09:14:04.792Z,2.55
2019-05-03T09:16:33.017Z,2.00
2019-05-03T09:19:01.525Z,1.98
2019-05-03T09:21:29.753Z,2.27
2019-05-03T09:23:57.991Z,2.22
2019-05-03T09:26:29.078Z,2.22
2019-05-03T09:28:56.267Z,2.00
2019-05-03T09:31:24.888Z,1.75
2019-05-03T09:33:54.786Z,1.92
2019-05-03T09:36:25.104Z,2.30
2019-05-03T09:38:54.990Z,2.05
2019-05-03T09:41:25.336Z,2.12
2019-05-03T09:43:55.250Z,2.30
2019-05-03T09:46:24.290Z,2.00
2019-05-03T09:48:58.501Z,2.22
2019-05-03T09:51:23.083Z,2.08
2019-05-03T09:53:55.945Z,1.82
2019-05-03T09:56:53.436Z,1.87
2019-05-03T09:59:11.938Z,2.12
2019-05-03T10:01:40.230Z,1.95
2019-05-03T10:04:08.462Z,1.60
2019-05-03T10:06:36.705Z,2.33
2019-05-03T10:09:05.977Z,1.80
2019-05-03T10:11:35.110Z,1.77
2019-05-03T10:14:04.699Z,2.00
2019-05-03T10:16:35.137Z,2.37
2019-05-03T10:19:03.507Z,1.95
2019-05-03T10:21:35.425Z,2.00
2019-05-03T10:24:05.570Z,2.50
2019-05-03T10:26:35.474Z,2.15
2019-05-03T10:29:05.277Z,2.25
2019-05-03T10:31:35.488Z,2.22
2019-05-03T10:34:05.738Z,2.00
2019-05-03T10:36:35.670Z,1.87
2019-05-03T10:39:05.206Z,2.00
2019-05-03T10:41:34.803Z,2.10
2019-05-03T10:44:03.145Z,2.05
2019-05-03T10:46:31.537Z,2.20
2019-05-03T10:48:59.771Z,1.82
2019-05-03T10:51:29.697Z,2.35
2019-05-03T10:53:59.574Z,1.92
2019-05-03T10:56:31.905Z,1.80
2019-05-03T10:59:01.787Z,2.15
2019-05-03T11:01:45.260Z,1.90
2019-05-03T11:04:14.778Z,2.15
2019-05-03T11:06:45.470Z,2.00
2019-05-03T11:09:15.239Z,1.90
2019-05-03T11:11:45.232Z,1.90
2019-05-03T11:14:14.967Z,2.50
2019-05-03T11:16:43.040Z,2.37
2019-05-03T11:19:11.316Z,2.35
2019-05-03T11:21:39.552Z,1.75
2019-05-03T11:24:07.828Z,2.00
2019-05-03T11:26:36.656Z,2.37
2019-05-03T11:29:05.319Z,2.20
2019-05-03T11:31:50.337Z,2.65
2019-05-03T11:34:36.116Z,2.17
2019-05-03T11:37:20.824Z,2.10
2019-05-03T11:39:49.938Z,2.20
2019-05-03T11:42:18.621Z,1.90
2019-05-03T11:44:48.224Z,2.30
2019-05-03T11:47:16.466Z,2.10
2019-05-03T11:49:45.437Z,2.15
2019-05-03T11:52:15.916Z,1.80
2019-05-03T11:54:45.267Z,1.90
2019-05-03T11:57:27.425Z,1.70
2019-05-03T11:59:55.776Z,1.72
2019-05-03T12:02:28.959Z,1.80
2019-05-03T12:04:58.940Z,1.77
2019-05-03T12:07:39.340Z,1.60
2019-05-03T12:10:13.755Z,1.70
2019-05-03T12:12:37.623Z,2.22
2019-05-03T12:15:07.505Z,1.80
2019-05-03T12:17:50.942Z,2.52
2019-05-03T12:20:11.390Z,2.02
2019-05-03T12:22:40.627Z,2.22
2019-05-03T12:25:10.644Z,2.20
2019-05-03T12:27:39.576Z,2.60
2019-05-03T12:30:07.799Z,2.12
2019-05-03T12:32:36.083Z,2.00
2019-05-03T12:35:06.162Z,2.37
2019-05-03T12:37:35.322Z,2.10
2019-05-03T12:40:07.417Z,2.58
2019-05-03T12:42:35.710Z,2.35
2019-05-03T12:45:04.697Z,3.08
2019-05-03T12:47:34.692Z,2.70
2019-05-03T12:50:05.314Z,2.58
2019-05-03T12:52:36.654Z,2.37
2019-05-03T12:55:06.015Z,2.72
2019-05-03T12:57:34.514Z,2.42
2019-05-03T13:00:07.753Z,2.40
2019-05-03T13:02:37.667Z,2.50
2019-05-03T13:05:06.082Z,2.33
2019-05-03T13:07:38.904Z,2.37
2019-05-03T13:10:07.367Z,2.80
2019-05-03T13:12:49.140Z,2.47
2019-05-03T13:15:09.033Z,2.75
2019-05-03T13:17:38.089Z,2.40
2019-05-03T13:20:09.587Z,2.47
2019-05-03T13:22:37.805Z,2.33
2019-05-03T13:25:07.798Z,2.80
2019-05-03T13:27:36.047Z,2.42
2019-05-03T13:30:06.766Z,2.47
2019-05-03T13:32:35.059Z,3.08
2019-05-03T13:35:05.768Z,2.50
2019-05-03T13:37:35.758Z,2.77
2019-05-03T13:40:07.413Z,2.70
2019-05-03T13:42:35.643Z,3.02
2019-05-03T13:45:09.863Z,2.87
2019-05-03T13:47:38.105Z,2.87
2019-05-03T13:50:07.259Z,2.60
2019-05-03T13:52:35.481Z,2.75
2019-05-03T13:55:05.391Z,2.90
2019-05-03T13:57:35.364Z,2.55
2019-05-03T14:00:06.320Z,2.83
2019-05-03T14:03:04.495Z,2.50
2019-05-03T14:05:10.489Z,1.92
2019-05-03T14:07:38.721Z,2.17
2019-05-03T14:10:07.034Z,2.45
2019-05-03T14:12:35.323Z,2.20
2019-05-03T14:15:05.675Z,2.55
2019-05-03T14:17:34.168Z,2.20
2019-05-03T14:20:09.574Z,2.70
2019-05-03T14:22:39.489Z,2.80
2019-05-03T14:25:07.723Z,1.92
2019-05-03T14:27:36.026Z,2.42
2019-05-03T14:30:07.534Z,2.40
2019-05-03T14:32:36.070Z,2.08
2019-05-03T14:35:06.730Z,2.27
2019-05-03T14:37:37.816Z,2.42
2019-05-03T14:40:07.059Z,2.22
2019-05-03T14:42:35.356Z,1.85
2019-05-03T14:45:05.043Z,2.40
2019-05-03T14:47:33.284Z,2.80
2019-05-03T14:50:02.575Z,2.05
2019-05-03T14:52:30.810Z,2.47
2019-05-03T14:55:00.726Z,2.05
2019-05-03T14:57:30.608Z,2.22
2019-05-03T15:00:17.465Z,2.30
2019-05-03T15:02:50.961Z,2.08
2019-05-03T15:05:17.565Z,2.30
2019-05-03T15:07:46.035Z,2.22
2019-05-03T15:10:15.017Z,2.27
2019-05-03T15:12:45.230Z,2.15
2019-05-03T15:15:14.642Z,2.20
2019-05-03T15:17:43.191Z,2.12
2019-05-03T15:20:11.455Z,2.10
2019-05-03T15:22:39.683Z,2.20
2019-05-03T15:25:07.924Z,2.22
2019-05-03T15:27:36.201Z,2.05
2019-05-03T15:30:08.323Z,1.70
2019-05-03T15:35:08.470Z,2.50
2019-05-03T15:37:36.751Z,2.40
2019-05-03T15:40:08.769Z,2.45
2019-05-03T15:42:38.685Z,2.35
2019-05-03T15:45:11.105Z,2.50
2019-05-03T15:47:41.037Z,2.10
2019-05-03T15:50:09.337Z,2.30
2019-05-03T15:52:37.615Z,2.30
2019-05-03T15:55:08.773Z,2.62
2019-05-03T15:57:37.072Z,2.30
2019-05-03T16:00:08.118Z,2.40
2019-05-03T16:02:36.416Z,2.35
2019-05-03T16:05:05.716Z,2.10
2019-05-03T16:07:35.549Z,2.33
2019-05-03T16:10:05.054Z,2.22
2019-05-03T16:12:34.457Z,2.22
2019-05-03T16:15:04.697Z,2.70
2019-05-03T16:17:33.158Z,2.27
2019-05-03T16:20:01.404Z,1.90
2019-05-03T16:22:29.688Z,2.30
2019-05-03T16:24:57.919Z,2.17
2019-05-03T16:27:30.617Z,2.45
2019-05-03T16:29:59.324Z,2.20
2019-05-03T16:32:27.588Z,2.22
2019-05-03T16:34:55.815Z,2.08
2019-05-03T16:37:25.500Z,2.17
2019-05-03T16:39:55.052Z,2.20
2019-05-03T16:42:24.589Z,2.30
2019-05-03T16:44:54.871Z,2.27
2019-05-03T16:47:24.834Z,2.62
2019-05-03T16:49:53.080Z,2.60
2019-05-03T16:52:21.313Z,2.20
2019-05-03T16:54:49.594Z,2.30
2019-05-03T16:57:17.828Z,2.60
2019-05-03T16:59:46.097Z,2.50
2019-05-03T17:02:14.707Z,2.08
2019-05-03T17:04:51.588Z,2.30
2019-05-03T17:07:30.349Z,2.52
2019-05-03T17:10:00.279Z,2.77
2019-05-03T17:12:36.176Z,2.35
2019-05-03T17:15:07.668Z,2.27
2019-05-03T17:17:35.893Z,2.58
2019-05-03T17:20:07.381Z,2.10
2019-05-03T17:22:35.673Z,2.45
2019-05-03T17:25:06.629Z,2.20
2019-05-03T17:27:35.102Z,2.55
2019-05-03T17:30:05.277Z,2.60
2019-05-03T17:32:35.104Z,2.30
2019-05-03T17:35:05.411Z,2.75
2019-05-03T17:37:34.668Z,2.60
2019-05-03T17:40:07.718Z,2.37
2019-05-03T17:42:55.646Z,2.50
2019-05-03T17:45:25.523Z,2.52
2019-05-03T17:47:54.849Z,2.67
2019-05-03T17:50:23.318Z,2.50
2019-05-03T17:52:54.563Z,2.67
2019-05-03T17:55:35.204Z,2.67
2019-05-03T17:58:11.138Z,2.80
2019-05-03T18:00:57.127Z,2.50
2019-05-03T18:03:27.062Z,2.70
2019-05-03T18:06:05.620Z,2.17
2019-05-03T18:08:38.237Z,2.62
2019-05-03T18:11:10.889Z,2.45
2019-05-03T18:13:39.121Z,2.40
2019-05-03T18:16:07.404Z,2.30
2019-05-03T18:18:35.633Z,2.35
2019-05-03T18:21:04.764Z,2.17
2019-05-03T18:23:35.024Z,2.40
2019-05-03T18:26:05.151Z,2.52
2019-05-03T18:28:35.374Z,2.72
2019-05-03T18:31:05.177Z,2.35
2019-05-03T18:33:33.441Z,2.55
2019-05-03T18:36:01.721Z,2.47
2019-05-03T18:38:31.646Z,2.47
2019-05-03T18:40:59.878Z,2.75
2019-05-03T18:43:29.807Z,2.95
2019-05-03T18:45:59.706Z,2.98
2019-05-03T18:48:27.990Z,3.00
2019-05-03T18:50:56.226Z,3.10
2019-05-03T18:53:25.200Z,3.22
2019-05-03T18:55:55.185Z,2.30
2019-05-03T18:58:24.424Z,2.52
2019-05-03T19:00:54.759Z,3.22
2019-05-03T19:03:25.002Z,2.83
2019-05-03T19:05:54.780Z,2.80
2019-05-03T19:08:42.395Z,2.83
2019-05-03T19:11:12.340Z,3.10
2019-05-03T19:13:44.894Z,3.00
2019-05-03T19:16:15.006Z,2.95
2019-05-03T19:18:45.323Z,3.10
2019-05-03T19:21:15.005Z,3.05
2019-05-03T19:23:44.813Z,2.83
2019-05-03T19:26:14.434Z,2.80
2019-05-03T19:28:44.463Z,3.35
2019-05-03T19:31:12.856Z,3.15
2019-05-03T19:33:41.093Z,3.00
2019-05-03T19:36:09.399Z,2.87
2019-05-03T19:38:37.637Z,2.83
2019-05-03T19:41:05.951Z,3.52
2019-05-03T19:43:35.563Z,3.30
2019-05-03T19:46:04.570Z,3.70
2019-05-03T19:48:34.864Z,2.75
2019-05-03T19:51:05.797Z,3.20
2019-05-03T19:53:35.945Z,3.62
2019-05-03T19:56:05.561Z,3.20
2019-05-03T19:58:35.345Z,3.20
2019-05-03T20:01:24.922Z,3.27
2019-05-03T20:04:10.560Z,3.10
2019-05-03T20:06:52.398Z,2.85
2019-05-03T20:09:24.752Z,2.98
2019-05-03T20:11:55.113Z,2.90
2019-05-03T20:14:22.979Z,2.95
2019-05-03T20:16:51.219Z,3.15
2019-05-03T20:19:21.487Z,2.90
2019-05-03T20:21:50.054Z,2.85
2019-05-03T20:24:18.305Z,2.95
2019-05-03T20:26:46.538Z,2.90
2019-05-03T20:29:14.882Z,3.02
2019-05-03T20:31:44.702Z,2.98
2019-05-03T20:34:13.221Z,3.22
2019-05-03T20:36:41.476Z,3.00
2019-05-03T20:39:09.759Z,3.15
2019-05-03T20:41:38.029Z,3.08
2019-05-03T20:44:24.741Z,2.98
2019-05-03T20:47:09.962Z,3.17
2019-05-03T20:49:38.227Z,3.20
2019-05-03T20:52:06.450Z,3.20
2019-05-03T20:54:35.075Z,3.02
2019-05-03T20:57:05.300Z,3.15
2019-05-03T20:59:42.894Z,3.05
2019-05-03T21:02:03.564Z,2.80
2019-05-03T21:04:31.847Z,3.17
2019-05-03T21:07:00.107Z,3.52
2019-05-03T21:09:28.375Z,3.12
2019-05-03T21:11:56.611Z,3.25
2019-05-03T21:14:24.873Z,3.20
2019-05-03T21:16:54.741Z,3.67
2019-05-03T21:19:36.853Z,3.35
2019-05-03T21:22:09.961Z,3.80
2019-05-03T21:24:39.843Z,3.55
2019-05-03T21:27:08.123Z,3.45
2019-05-03T21:29:38.015Z,3.60
2019-05-03T21:32:06.283Z,3.25
2019-05-03T21:34:34.713Z,3.45
2019-05-03T21:37:02.975Z,3.47
2019-05-03T21:39:31.211Z,3.30
2019-05-03T21:41:59.499Z,3.50
2019-05-03T21:44:31.412Z,3.45
2019-05-03T21:47:01.335Z,3.55
2019-05-03T21:49:46.241Z,3.20
2019-05-03T21:52:14.748Z,3.55
2019-05-03T21:54:44.940Z,3.27
2019-05-03T21:57:14.246Z,3.70
2019-05-03T21:59:44.682Z,3.72
2019-05-03T22:02:15.287Z,3.52
2019-05-03T22:04:44.455Z,3.70
2019-05-03T22:07:12.838Z,3.52
2019-05-03T22:09:41.126Z,3.98
2019-05-03T22:12:09.354Z,4.10
2019-05-03T22:14:39.268Z,3.80
2019-05-03T22:17:25.356Z,3.95
2019-05-03T22:19:55.332Z,4.65
2019-05-03T22:22:30.686Z,3.87
2019-05-03T22:25:00.621Z,3.72
2019-05-03T22:27:30.502Z,3.90
2019-05-03T22:29:58.781Z,4.03
2019-05-03T22:32:27.240Z,3.90
2019-05-03T22:34:55.514Z,4.35
2019-05-03T22:37:25.191Z,3.83
2019-05-03T22:39:55.034Z,3.72
2019-05-03T22:42:25.179Z,4.03
2019-05-03T22:44:55.220Z,4.12
2019-05-03T22:47:25.178Z,3.80
2019-05-03T22:49:54.772Z,3.77
2019-05-03T22:52:23.320Z,4.40
2019-05-03T22:54:51.557Z,4.47
2019-05-03T22:57:19.827Z,4.25
2019-05-03T22:59:48.050Z,3.85
2019-05-03T23:02:17.227Z,4.60
2019-05-03T23:04:45.563Z,4.00
2019-05-03T23:07:14.866Z,4.28
2019-05-03T23:09:44.667Z,4.10
2019-05-03T23:12:13.142Z,4.50
2019-05-03T23:14:41.362Z,4.30
2019-05-03T23:17:09.637Z,4.47
2019-05-03T23:19:39.515Z,4.33
2019-05-03T23:22:09.403Z,4.17
2019-05-03T23:24:37.682Z,4.12
2019-05-03T23:27:05.914Z,4.85
2019-05-03T23:29:34.930Z,4.53
2019-05-03T23:32:04.659Z,4.05
2019-05-03T23:34:35.158Z,4.47
2019-05-03T23:37:05.238Z,3.95
2019-05-03T23:39:33.100Z,4.30
2019-05-03T23:42:01.340Z,4.33
2019-05-03T23:44:29.616Z,4.83
2019-05-03T23:47:15.632Z,4.47
2019-05-03T23:49:44.627Z,5.10
2019-05-03T23:52:26.810Z,5.00
2019-05-03T23:54:56.786Z,4.80
2019-05-03T23:57:25.197Z,5.28
2019-05-03T23:59:55.002Z,5.00
